Observations for LARAMIE GEN. BREES, WY (LAR)

KLAR 230953Z AUTO 15014KT 10SM CLR 03/02 A3022 RMK AO2 SLP174 T00330017 
KLAR 230853Z AUTO 16013KT 10SM CLR 03/02 A3023 RMK AO2 SLP176 T00280017 56008   
KLAR 230753Z AUTO 17015KT 10SM CLR 04/02 A3023 RMK AO2 SLP179 T00390017 
KLAR 230653Z AUTO 19011KT 10SM CLR 03/01 A3025 RMK AO2 SLP174 T00330011 401671006   
KLAR 230553Z AUTO 22009KT 10SM CLR 03/01 A3026 RMK AO2 SLP183 T00330006 10072 20028 58005   
KLAR 230453Z AUTO 17007KT 10SM CLR 05/02 A3028 RMK AO2 SLP192 T00500017 
KLAR 230353Z AUTO 16010KT 10SM CLR 04/02 A3029 RMK AO2 SLP207 T00440017 
KLAR 230253Z AUTO 11010KT 10SM CLR 07/03 A3028 RMK AO2 SLP204 T00670033 53005   
KLAR 230153Z AUTO 10007KT 10SM SCT095 06/03 A3027 RMK AO2 SLP220 T00610033  
KLAR 230053Z AUTO 05007KT 10SM BKN090 07/05 A3027 RMK AO2 SLP222 T00670050  
KLAR 222353Z AUTO 05008KT 10SM SCT095 08/06 A3026 RMK AO2 RAB2256E08 SLP220 P0000 60004 T00780056 10167 20078 50005 
KLAR 222253Z AUTO 12006KT 10SM OVC060 09/06 A3027 RMK AO2 RAB06E50 SLP214 P0003 T00940056   
KLAR 222153Z AUTO 36011KT 10SM OVC070 13/03 A3025 RMK AO2 SLP198 T01280033  
KLAR 222117Z AUTO 35009KT 10SM FEW065 OVC100 13/03 A3025 RMK AO2 LTG DSNT N T01330028
KLAR 222053Z AUTO 35011KT 10SM VCTS BKN070 OVC095 14/02 A3024 RMK AO2 RAE23B39E53 SLP187 P0000 60001 T01440022 56008
KLAR 221953Z AUTO 22004KT 6SM -RA FEW050 BKN070 OVC095 13/03 A3025 RMK AO2 RAB48 SLP189 P0001 T01280033 
KLAR 221853Z AUTO VRB06KT 10SM CLR 16/00 A3025 RMK AO2 LTG DSNT NW SLP179 T01610000 
KLAR 221753Z AUTO VRB04KT 10SM CLR 16/02 A3027 RMK AO2 SLP191 T01560017 10156 21006 58001   
KLAR 221653Z AUTO 00000KT 10SM CLR 13/02 A3028 RMK AO2 SLP205 T01280017 
KLAR 221553Z AUTO 19006KT 10SM CLR 09/02 A3028 RMK AO2 SLP204 T00940017 
KLAR 221453Z AUTO 20004KT 10SM CLR 07/02 A3028 RMK AO2 SLP206 T00720017 53008   
KLAR 221353Z AUTO 15006KT 10SM CLR 02/M01 A3025 RMK AO2 SLP213 T00221006
KLAR 221253Z AUTO 10007KT 10SM CLR 01/M01 A3025 RMK AO2 SLP207 T00111011
KLAR 221153Z AUTO 11007KT 10SM CLR M01/M02 A3024 RMK AO2 SLP192 T10061022 10044 21006 53005 
KLAR 221053Z AUTO 15007KT 10SM CLR 01/M02 A3023 RMK AO2 SLP177 T00061017
KLAR 220953Z AUTO 13007KT 10SM CLR 01/M02 A3023 RMK AO2 SLP176 T00061022